createdAt,value
2019-03-21T00:01:23.987Z,8.00
2019-03-21T00:03:58.567Z,7.83
2019-03-21T00:06:31.682Z,8.88
2019-03-21T00:09:06.014Z,7.58
2019-03-21T00:12:02.443Z,8.68
2019-03-21T00:14:39.650Z,8.98
2019-03-21T00:17:12.181Z,7.97
2019-03-21T00:19:42.911Z,8.15
2019-03-21T00:22:13.682Z,6.35
2019-03-21T00:24:44.409Z,8.00
2019-03-21T00:27:15.248Z,7.60
2019-03-21T00:29:45.996Z,7.40
2019-03-21T00:32:16.853Z,8.10
2019-03-21T00:34:47.943Z,10.03
2019-03-21T00:37:18.607Z,7.35
2019-03-21T00:39:49.389Z,7.75
2019-03-21T00:42:20.119Z,7.53
2019-03-21T00:44:50.933Z,7.45
2019-03-21T00:47:21.762Z,7.05
2019-03-21T00:49:52.509Z,7.50
2019-03-21T00:52:26.797Z,7.22
2019-03-21T00:54:57.469Z,7.62
2019-03-21T00:57:28.119Z,7.55
2019-03-21T00:59:58.813Z,8.20
2019-03-21T01:02:29.533Z,8.08
2019-03-21T01:05:00.380Z,8.30
2019-03-21T01:07:31.240Z,8.73
2019-03-21T01:10:01.815Z,9.15
2019-03-21T01:12:32.579Z,8.83
2019-03-21T01:15:03.218Z,8.20
2019-03-21T01:17:34.401Z,9.50
2019-03-21T01:20:07.521Z,8.65
2019-03-21T01:22:38.113Z,9.75
2019-03-21T01:25:11.093Z,9.60
2019-03-21T01:27:41.774Z,9.20
2019-03-21T01:30:13.919Z,8.80
2019-03-21T01:32:44.536Z,8.75
2019-03-21T01:35:16.416Z,9.93
2019-03-21T01:37:47.061Z,10.30
2019-03-21T01:40:20.604Z,10.10
2019-03-21T01:42:51.443Z,9.83
2019-03-21T01:45:25.133Z,9.38
2019-03-21T01:47:56.183Z,8.85
2019-03-21T01:50:27.153Z,10.85
2019-03-21T01:52:57.851Z,9.98
2019-03-21T01:55:28.485Z,9.88
2019-03-21T01:57:59.270Z,9.55
2019-03-21T02:00:33.610Z,10.28
2019-03-21T02:03:04.371Z,10.23
2019-03-21T02:05:35.183Z,9.83
2019-03-21T02:08:05.949Z,10.65
2019-03-21T02:10:36.840Z,11.08
2019-03-21T02:13:07.643Z,10.60
2019-03-21T02:15:38.437Z,9.90
2019-03-21T02:18:09.270Z,10.60
2019-03-21T02:20:39.989Z,10.45
2019-03-21T02:23:11.114Z,9.95
2019-03-21T02:25:41.673Z,10.15
2019-03-21T02:28:12.501Z,10.30
2019-03-21T02:30:43.185Z,11.15
2019-03-21T02:33:23.323Z,10.43
2019-03-21T02:35:53.964Z,10.28
2019-03-21T02:38:24.762Z,10.60
2019-03-21T02:40:55.702Z,11.25
2019-03-21T02:43:26.392Z,11.03
2019-03-21T02:45:57.206Z,9.95
2019-03-21T02:48:27.921Z,10.32
2019-03-21T02:50:58.433Z,10.72
2019-03-21T02:53:29.182Z,10.88
2019-03-21T02:55:59.840Z,10.82
2019-03-21T02:58:30.656Z,10.80
2019-03-21T03:01:01.394Z,10.48
2019-03-21T03:03:32.073Z,11.33
2019-03-21T03:06:02.733Z,10.60
2019-03-21T03:08:33.427Z,10.32
2019-03-21T03:11:05.170Z,11.20
2019-03-21T03:13:35.964Z,11.12
2019-03-21T03:16:06.659Z,9.93
2019-03-21T03:18:39.521Z,11.57
2019-03-21T03:21:10.101Z,10.53
2019-03-21T03:23:40.681Z,10.30
2019-03-21T03:26:11.403Z,10.50
2019-03-21T03:28:44.612Z,11.85
2019-03-21T03:31:16.592Z,10.05
2019-03-21T03:33:47.307Z,10.75
2019-03-21T03:36:17.996Z,10.55
2019-03-21T03:38:48.670Z,9.83
2019-03-21T03:41:19.443Z,9.80
2019-03-21T03:43:50.241Z,11.28
2019-03-21T03:46:20.981Z,10.82
2019-03-21T03:48:51.703Z,11.12
2019-03-21T03:51:22.393Z,10.35
2019-03-21T03:53:53.098Z,10.55
2019-03-21T03:56:23.971Z,11.15
2019-03-21T03:58:55.012Z,11.28
2019-03-21T04:01:26.771Z,11.57
2019-03-21T04:03:57.661Z,10.95
2019-03-21T04:06:30.177Z,10.35
2019-03-21T04:09:00.892Z,10.82
2019-03-21T04:11:31.759Z,11.00
2019-03-21T04:14:02.551Z,11.48
2019-03-21T04:16:33.335Z,10.60
2019-03-21T04:19:04.143Z,11.28
2019-03-21T04:21:35.076Z,10.58
2019-03-21T04:24:06.882Z,10.23
2019-03-21T04:26:39.312Z,10.63
2019-03-21T04:29:10.041Z,10.38
2019-03-21T04:31:40.753Z,10.93
2019-03-21T04:34:11.571Z,10.75
2019-03-21T04:36:42.299Z,10.95
2019-03-21T04:39:13.771Z,11.30
2019-03-21T04:41:44.907Z,12.20
2019-03-21T04:44:15.707Z,11.22
2019-03-21T04:46:48.866Z,10.03
2019-03-21T04:49:19.479Z,9.98
2019-03-21T04:51:51.605Z,12.37
2019-03-21T04:54:22.243Z,10.88
2019-03-21T04:56:52.960Z,11.73
2019-03-21T04:59:23.777Z,12.63
2019-03-21T05:01:54.387Z,11.48
2019-03-21T05:04:24.999Z,10.53
2019-03-21T05:06:55.662Z,11.15
2019-03-21T05:09:26.511Z,12.00
2019-03-21T05:11:57.253Z,10.80
2019-03-21T05:14:29.187Z,12.43
2019-03-21T05:16:59.801Z,11.85
2019-03-21T05:19:30.535Z,12.18
2019-03-21T05:22:01.171Z,10.90
2019-03-21T05:24:33.241Z,11.25
2019-03-21T05:27:03.803Z,12.18
2019-03-21T05:29:36.247Z,12.53
2019-03-21T05:32:06.876Z,11.55
2019-03-21T05:34:37.541Z,11.63
2019-03-21T05:37:08.415Z,11.53
2019-03-21T05:39:40.057Z,11.48
2019-03-21T05:42:15.311Z,12.20
2019-03-21T05:44:45.954Z,11.57
2019-03-21T05:47:17.758Z,12.82
2019-03-21T05:49:50.322Z,12.78
2019-03-21T05:52:20.972Z,15.03
2019-03-21T05:54:51.615Z,12.40
2019-03-21T05:57:22.222Z,11.73
2019-03-21T05:59:53.011Z,11.43
2019-03-21T06:02:23.775Z,12.25
2019-03-21T06:04:54.503Z,14.13
2019-03-21T06:07:55.623Z,13.70
2019-03-21T06:10:28.895Z,12.50
2019-03-21T06:13:00.555Z,12.78
2019-03-21T06:15:32.390Z,14.43
2019-03-21T06:18:40.797Z,12.13
2019-03-21T06:21:26.892Z,13.10
2019-03-21T06:24:16.696Z,11.53
2019-03-21T06:27:14.109Z,12.80
2019-03-21T06:29:39.830Z,14.60
2019-03-21T06:32:12.877Z,12.95
2019-03-21T06:34:42.827Z,12.70
2019-03-21T06:37:13.503Z,13.70
2019-03-21T06:39:44.775Z,15.13
2019-03-21T06:42:15.759Z,14.35
2019-03-21T06:44:46.532Z,11.35
2019-03-21T06:47:17.604Z,13.10
2019-03-21T06:49:52.896Z,12.98
2019-03-21T06:52:27.095Z,13.32
2019-03-21T06:55:01.754Z,13.65
2019-03-21T06:57:32.426Z,12.73
2019-03-21T07:00:03.146Z,13.30
2019-03-21T07:02:35.735Z,12.45
2019-03-21T07:05:07.504Z,14.58
2019-03-21T07:07:38.559Z,12.47
2019-03-21T07:10:10.682Z,12.37
2019-03-21T07:12:41.755Z,14.50
2019-03-21T07:15:14.875Z,12.88
2019-03-21T07:17:53.067Z,13.05
2019-03-21T07:20:24.661Z,12.80
2019-03-21T07:22:58.064Z,12.63
2019-03-21T07:25:30.361Z,13.08
2019-03-21T07:28:03.410Z,13.18
2019-03-21T07:30:34.096Z,13.65
2019-03-21T07:33:11.664Z,13.20
2019-03-21T07:35:45.872Z,12.40
2019-03-21T07:38:16.562Z,13.88
2019-03-21T07:40:48.894Z,13.35
2019-03-21T07:43:22.097Z,14.83
2019-03-21T07:45:51.791Z,14.28
2019-03-21T07:48:23.020Z,14.60
2019-03-21T07:50:56.122Z,15.72
2019-03-21T07:53:29.086Z,14.23
2019-03-21T07:56:00.392Z,13.80
2019-03-21T07:58:31.132Z,14.07
2019-03-21T08:01:05.041Z,14.10
2019-03-21T08:03:36.038Z,14.55
2019-03-21T08:06:09.266Z,13.38
2019-03-21T08:08:39.644Z,14.60
2019-03-21T08:11:10.365Z,14.90
2019-03-21T08:13:41.021Z,13.68
2019-03-21T08:16:11.791Z,13.53
2019-03-21T08:18:42.522Z,14.18
2019-03-21T08:21:19.489Z,12.53
2019-03-21T08:24:34.435Z,13.45
2019-03-21T08:28:00.033Z,12.68
2019-03-21T08:29:56.083Z,12.53
2019-03-21T08:33:39.169Z,12.55
2019-03-21T08:38:19.174Z,13.30
2019-03-21T08:40:51.495Z,12.00
2019-03-21T08:43:23.273Z,11.28
2019-03-21T08:45:53.861Z,11.97
2019-03-21T08:48:27.920Z,10.72
2019-03-21T08:51:08.293Z,10.95
2019-03-21T08:56:22.660Z,11.60
2019-03-21T08:58:56.161Z,10.90
2019-03-21T09:01:27.423Z,9.78
2019-03-21T09:03:58.111Z,11.00
2019-03-21T09:06:28.658Z,10.30
2019-03-21T09:09:00.461Z,11.30
2019-03-21T09:11:37.166Z,12.65
2019-03-21T09:14:08.060Z,8.63
2019-03-21T09:16:42.056Z,9.93
2019-03-21T09:19:14.051Z,8.23
2019-03-21T09:21:44.648Z,9.98
2019-03-21T09:24:15.443Z,9.25
2019-03-21T09:26:46.182Z,8.13
2019-03-21T09:29:16.806Z,7.95
2019-03-21T09:31:47.493Z,7.50
2019-03-21T09:34:19.202Z,7.08
2019-03-21T09:36:50.878Z,6.58
2019-03-21T09:39:22.008Z,7.78
2019-03-21T09:41:52.788Z,9.85
2019-03-21T09:44:27.724Z,6.72
2019-03-21T09:46:58.322Z,6.28
2019-03-21T09:49:29.483Z,4.97
2019-03-21T09:51:59.993Z,5.25
2019-03-21T09:54:30.521Z,5.80
2019-03-21T09:57:01.147Z,6.22
2019-03-21T09:59:31.798Z,6.08
2019-03-21T10:02:02.907Z,6.05
2019-03-21T10:04:33.480Z,5.30
2019-03-21T10:07:04.054Z,5.70
2019-03-21T10:09:34.624Z,5.62
2019-03-21T10:12:05.495Z,5.25
2019-03-21T10:14:36.214Z,4.90
2019-03-21T10:17:06.768Z,3.85
2019-03-21T10:19:37.277Z,5.20
2019-03-21T10:22:08.061Z,4.47
2019-03-21T10:24:38.786Z,4.60
2019-03-21T10:27:09.338Z,6.00
2019-03-21T10:29:39.902Z,5.08
2019-03-21T10:32:14.458Z,5.15
2019-03-21T10:34:42.954Z,4.85
2019-03-21T10:37:13.632Z,5.37
2019-03-21T10:39:44.266Z,5.90
2019-03-21T10:42:14.802Z,6.05
2019-03-21T10:44:45.783Z,5.90
2019-03-21T10:47:16.598Z,5.95
2019-03-21T10:49:47.278Z,5.60
2019-03-21T10:52:17.873Z,6.42
2019-03-21T10:54:48.415Z,5.80
2019-03-21T10:57:18.971Z,5.05
2019-03-21T10:59:49.557Z,4.72
2019-03-21T11:02:29.317Z,4.90
2019-03-21T11:04:59.888Z,6.67
2019-03-21T11:07:30.393Z,7.62
2019-03-21T11:10:01.030Z,7.33
2019-03-21T11:12:32.733Z,6.83
2019-03-21T11:15:03.384Z,6.30
2019-03-21T11:17:35.090Z,6.05
2019-03-21T11:20:13.623Z,6.00
2019-03-21T11:22:44.438Z,6.58
2019-03-21T11:25:15.114Z,6.53
2019-03-21T11:27:45.768Z,6.80
2019-03-21T11:30:19.335Z,8.00
2019-03-21T11:32:50.060Z,8.55
2019-03-21T11:35:20.640Z,8.48
2019-03-21T11:37:51.402Z,8.53
2019-03-21T11:40:22.086Z,8.15
2019-03-21T11:42:54.327Z,8.85
2019-03-21T11:45:25.103Z,7.65
2019-03-21T11:47:55.865Z,8.05
2019-03-21T11:50:26.587Z,7.80
2019-03-21T11:52:57.274Z,7.75
2019-03-21T11:55:27.999Z,7.67
2019-03-21T11:57:58.662Z,7.10
2019-03-21T12:00:29.429Z,6.85
2019-03-21T12:03:00.255Z,6.62
2019-03-21T12:05:30.832Z,6.95
2019-03-21T12:08:01.483Z,7.75
2019-03-21T12:10:32.080Z,7.37
2019-03-21T12:13:02.806Z,7.53
2019-03-21T12:15:33.573Z,7.22
2019-03-21T12:18:04.376Z,7.47
2019-03-21T12:20:35.776Z,7.30
2019-03-21T12:23:06.594Z,7.62
2019-03-21T12:25:37.301Z,8.60
2019-03-21T12:28:07.994Z,6.67
2019-03-21T12:30:40.427Z,6.85
2019-03-21T12:33:11.271Z,6.80
2019-03-21T12:35:42.065Z,6.25
2019-03-21T12:38:13.967Z,6.67
2019-03-21T12:40:44.658Z,6.08
2019-03-21T12:43:15.442Z,7.17
2019-03-21T12:45:46.148Z,6.55
2019-03-21T12:48:16.802Z,5.75
2019-03-21T12:50:47.553Z,5.42
2019-03-21T12:53:18.141Z,5.05
2019-03-21T12:55:48.792Z,5.42
2019-03-21T12:58:19.385Z,4.37
2019-03-21T13:00:50.110Z,5.50
2019-03-21T13:03:20.734Z,4.95
2019-03-21T13:05:53.397Z,5.47
2019-03-21T13:08:33.278Z,5.40
2019-03-21T13:10:56.337Z,4.70
2019-03-21T13:13:26.961Z,4.87
2019-03-21T13:15:57.535Z,4.33
2019-03-21T13:18:28.181Z,3.25
2019-03-21T13:20:59.462Z,4.45
2019-03-21T13:23:30.488Z,4.50
2019-03-21T13:26:01.273Z,4.42
2019-03-21T13:28:31.860Z,4.47
2019-03-21T13:31:02.516Z,4.95
2019-03-21T13:33:35.198Z,5.08
2019-03-21T13:36:06.222Z,5.97
2019-03-21T13:38:37.003Z,4.50
2019-03-21T13:41:07.769Z,4.28
2019-03-21T13:43:39.496Z,5.47
2019-03-21T13:46:10.222Z,4.87
2019-03-21T13:48:40.782Z,4.72
2019-03-21T13:51:11.455Z,5.53
2019-03-21T13:53:42.134Z,5.37
2019-03-21T13:56:12.823Z,5.05
2019-03-21T13:58:46.557Z,5.70
2019-03-21T14:01:16.897Z,4.75
2019-03-21T14:03:47.447Z,4.70
2019-03-21T14:06:18.120Z,4.40
2019-03-21T14:08:48.684Z,4.83
2019-03-21T14:11:19.495Z,5.40
2019-03-21T14:13:51.286Z,5.05
2019-03-21T14:16:21.932Z,5.90
2019-03-21T14:18:53.003Z,4.97
2019-03-21T14:21:24.273Z,5.72
2019-03-21T14:23:54.981Z,4.05
2019-03-21T14:26:25.618Z,4.53
2019-03-21T14:28:56.347Z,4.17
2019-03-21T14:31:26.916Z,4.72
2019-03-21T14:33:57.440Z,5.47
2019-03-21T14:36:28.130Z,4.80
2019-03-21T14:38:58.743Z,5.00
2019-03-21T14:41:29.242Z,5.22
2019-03-21T14:44:00.041Z,4.42
2019-03-21T14:46:30.515Z,4.20
2019-03-21T14:49:01.186Z,4.35
2019-03-21T14:51:32.427Z,4.42
2019-03-21T14:54:03.030Z,4.70
2019-03-21T14:56:33.685Z,4.35
2019-03-21T14:59:04.481Z,4.25
2019-03-21T15:01:35.137Z,4.65
2019-03-21T15:04:17.260Z,5.05
2019-03-21T15:06:47.955Z,4.45
2019-03-21T15:09:18.459Z,4.70
2019-03-21T15:11:49.181Z,4.25
2019-03-21T15:14:19.813Z,4.28
2019-03-21T15:16:50.612Z,4.45
2019-03-21T15:19:21.151Z,4.65
2019-03-21T15:21:51.716Z,3.95
2019-03-21T15:24:22.307Z,5.10
2019-03-21T15:26:53.014Z,4.85
2019-03-21T15:29:35.686Z,4.22
2019-03-21T15:32:07.402Z,4.03
2019-03-21T15:34:37.956Z,5.28
2019-03-21T15:37:08.712Z,5.47
2019-03-21T15:39:39.349Z,4.70
2019-03-21T15:42:10.260Z,4.95
2019-03-21T15:44:40.971Z,5.00
2019-03-21T15:47:11.804Z,6.15
2019-03-21T15:49:42.494Z,6.78
2019-03-21T15:52:13.027Z,5.80
2019-03-21T15:54:45.301Z,7.87
2019-03-21T15:57:16.093Z,4.33
2019-03-21T15:59:46.687Z,5.03
2019-03-21T16:02:17.356Z,6.22
2019-03-21T16:04:48.815Z,5.87
2019-03-21T16:07:24.245Z,4.87
2019-03-21T16:10:17.749Z,4.60
2019-03-21T16:12:52.620Z,4.62
2019-03-21T16:15:57.112Z,6.45
2019-03-21T16:18:50.262Z,5.37
2019-03-21T16:21:39.721Z,6.92
2019-03-21T16:24:22.284Z,4.72
2019-03-21T16:27:07.754Z,5.22
2019-03-21T16:29:43.007Z,6.87
2019-03-21T16:32:13.595Z,6.47
2019-03-21T16:34:47.993Z,5.87
2019-03-21T16:37:31.014Z,5.62
2019-03-21T16:40:16.944Z,6.03
2019-03-21T16:42:48.951Z,5.78
2019-03-21T16:45:21.191Z,7.00
2019-03-21T16:47:52.035Z,7.05
2019-03-21T16:50:22.783Z,10.55
2019-03-21T16:52:54.459Z,9.88
2019-03-21T16:55:26.339Z,9.48
2019-03-21T16:57:57.046Z,11.33
2019-03-21T17:00:30.801Z,11.83
2019-03-21T17:03:01.681Z,13.60
2019-03-21T17:05:33.079Z,12.70
2019-03-21T17:08:11.319Z,10.80
2019-03-21T17:10:36.166Z,8.03
2019-03-21T17:13:07.516Z,7.75
2019-03-21T17:15:38.529Z,6.65
2019-03-21T17:18:09.379Z,6.15
2019-03-21T17:20:39.932Z,5.53
2019-03-21T17:23:13.809Z,5.45
2019-03-21T17:25:46.056Z,6.08
2019-03-21T17:28:16.857Z,5.70
2019-03-21T17:30:48.103Z,5.37
2019-03-21T17:33:24.037Z,5.80
2019-03-21T17:36:01.801Z,6.33
2019-03-21T17:38:35.319Z,6.90
2019-03-21T17:41:06.109Z,5.72
2019-03-21T17:43:38.892Z,7.10
2019-03-21T17:46:09.511Z,8.75
2019-03-21T17:48:40.337Z,8.13
2019-03-21T17:51:10.910Z,8.00
2019-03-21T17:53:41.628Z,8.28
2019-03-21T17:56:12.497Z,9.73
2019-03-21T17:58:43.237Z,8.55
2019-03-21T18:01:14.106Z,10.15
2019-03-21T18:03:45.128Z,9.20
2019-03-21T18:06:15.785Z,8.95
2019-03-21T18:08:46.648Z,7.37
2019-03-21T18:11:17.480Z,8.35
2019-03-21T18:13:48.113Z,9.43
2019-03-21T18:16:18.852Z,7.47
2019-03-21T18:18:49.417Z,8.13
2019-03-21T18:21:20.011Z,10.03
2019-03-21T18:23:50.764Z,9.63
2019-03-21T18:26:21.590Z,8.58
2019-03-21T18:28:52.234Z,8.88
2019-03-21T18:31:22.928Z,8.70
2019-03-21T18:33:53.650Z,8.93
2019-03-21T18:36:24.327Z,10.93
2019-03-21T18:38:59.525Z,10.08
2019-03-21T18:41:27.525Z,11.18
2019-03-21T18:43:58.207Z,9.58
2019-03-21T18:46:28.898Z,8.65
2019-03-21T18:48:59.856Z,8.70
2019-03-21T18:51:30.788Z,9.98
2019-03-21T18:54:01.414Z,10.80
2019-03-21T18:56:32.199Z,11.73
2019-03-21T18:59:08.222Z,10.13
2019-03-21T19:01:39.480Z,12.20
2019-03-21T19:04:11.196Z,10.63
2019-03-21T19:06:41.902Z,11.60
2019-03-21T19:09:12.573Z,13.90
2019-03-21T19:11:43.676Z,13.03
2019-03-21T19:14:14.506Z,13.03
2019-03-21T19:16:46.418Z,11.30
2019-03-21T19:19:18.997Z,11.50
2019-03-21T19:21:49.797Z,11.57
2019-03-21T19:24:20.555Z,11.85
2019-03-21T19:26:51.928Z,14.03
2019-03-21T19:29:25.124Z,14.70
2019-03-21T19:31:56.583Z,13.88
2019-03-21T19:34:27.864Z,13.03
2019-03-21T19:37:00.861Z,12.70
2019-03-21T19:39:32.110Z,13.05
2019-03-21T19:42:06.014Z,13.43
2019-03-21T19:44:38.247Z,12.58
2019-03-21T19:47:10.587Z,14.63
2019-03-21T19:49:57.684Z,15.28
2019-03-21T19:52:38.480Z,12.30
2019-03-21T19:55:29.711Z,13.85
2019-03-21T19:57:57.690Z,14.70
2019-03-21T20:00:34.354Z,15.35
2019-03-21T20:03:07.876Z,15.32
2019-03-21T20:05:45.029Z,14.98
2019-03-21T20:08:22.692Z,18.57
2019-03-21T20:11:08.937Z,16.37
2019-03-21T20:13:48.404Z,18.30
2019-03-21T20:16:28.051Z,16.67
2019-03-21T20:19:02.982Z,17.37
2019-03-21T20:21:47.867Z,16.75
2019-03-21T20:24:23.122Z,18.40
2019-03-21T20:27:00.360Z,22.13
2019-03-21T20:29:38.187Z,21.70
2019-03-21T20:32:29.786Z,17.50
2019-03-21T20:35:14.152Z,19.82
2019-03-21T20:40:45.495Z,18.37
2019-03-21T20:43:23.923Z,19.87
2019-03-21T20:46:27.098Z,19.02
2019-03-21T20:49:02.244Z,18.87
2019-03-21T20:52:15.804Z,17.82
2019-03-21T20:55:00.524Z,19.62
2019-03-21T20:57:58.797Z,19.60
2019-03-21T21:00:48.133Z,20.12
2019-03-21T21:03:31.907Z,20.37
2019-03-21T21:06:30.707Z,18.77
2019-03-21T21:09:49.677Z,18.73
2019-03-21T21:12:52.457Z,19.40
2019-03-21T21:15:56.146Z,19.07
2019-03-21T21:18:26.790Z,17.80
2019-03-21T21:20:57.513Z,18.67
2019-03-21T21:23:28.505Z,19.27
2019-03-21T21:26:05.390Z,19.60
2019-03-21T21:28:31.527Z,18.80
2019-03-21T21:31:02.406Z,19.25
2019-03-21T21:33:33.123Z,19.10
2019-03-21T21:36:03.852Z,17.90
2019-03-21T21:38:34.478Z,18.15
2019-03-21T21:41:05.143Z,20.08
2019-03-21T21:43:35.849Z,18.37
2019-03-21T21:46:09.008Z,18.75
2019-03-21T21:48:39.712Z,18.70
2019-03-21T21:51:10.492Z,17.77
2019-03-21T21:53:41.179Z,19.37
2019-03-21T21:56:17.665Z,17.65
2019-03-21T21:58:45.436Z,18.82
2019-03-21T22:01:16.425Z,18.95
2019-03-21T22:03:47.146Z,19.92
2019-03-21T22:06:17.852Z,19.25
2019-03-21T22:08:48.545Z,18.35
2019-03-21T22:11:19.207Z,18.87
2019-03-21T22:13:49.987Z,18.05
2019-03-21T22:16:20.789Z,19.15
2019-03-21T22:18:51.348Z,17.98
2019-03-21T22:21:22.054Z,18.62
2019-03-21T22:23:52.793Z,18.05
2019-03-21T22:26:29.544Z,18.52
2019-03-21T22:28:55.654Z,18.50
2019-03-21T22:31:27.942Z,17.52
2019-03-21T22:33:58.446Z,18.95
2019-03-21T22:36:29.065Z,19.20
2019-03-21T22:38:59.625Z,18.17
2019-03-21T22:41:30.276Z,18.45
2019-03-21T22:44:00.832Z,18.07
2019-03-21T22:46:31.438Z,17.40
2019-03-21T22:49:01.949Z,18.77
2019-03-21T22:51:32.482Z,18.50
2019-03-21T22:54:03.049Z,16.80
2019-03-21T22:56:41.172Z,18.48
2019-03-21T22:59:06.097Z,17.67
2019-03-21T23:01:37.305Z,21.25
2019-03-21T23:04:08.158Z,17.10
2019-03-21T23:06:39.985Z,17.73
2019-03-21T23:09:10.665Z,17.62
2019-03-21T23:11:41.295Z,18.52
2019-03-21T23:14:11.946Z,17.55
2019-03-21T23:16:42.866Z,18.92
2019-03-21T23:19:13.405Z,18.85
2019-03-21T23:21:46.046Z,17.10
2019-03-21T23:24:16.528Z,18.20
2019-03-21T23:26:52.901Z,17.25
2019-03-21T23:29:19.566Z,17.37
2019-03-21T23:31:50.226Z,16.60
2019-03-21T23:34:20.974Z,18.30
2019-03-21T23:40:09.925Z,17.25
2019-03-21T23:42:40.478Z,18.42
2019-03-21T23:45:11.666Z,17.35
2019-03-21T23:47:42.589Z,18.60
2019-03-21T23:50:14.049Z,17.12
2019-03-21T23:52:45.207Z,19.67
2019-03-21T23:55:16.115Z,17.50
2019-03-21T23:57:46.698Z,17.12
